Time;durP1;ratioP1;P1;durP2;ratioP2;P2;SDS_P1;SDS_P2;PMS_P1;PMS_P2;Temp;Humidity;BMP_temperature;BMP_pressure;BME280_temperature;BME280_humidity;BME280_pressure;Samples;Min_cycle;Max_cycle;Signal;HPM_P1;HPM_P2
2022/12/08 00:02:04;;;;;;;1.80;1.35;;;;;;;3.16;84.83;99377.72;4994341;28;20054;-70
2022/12/08 00:09:20;;;;;;;5.55;1.75;;;;;;;3.18;84.99;99371.91;4994567;28;20108;-70
2022/12/08 00:10:00;;;;;;;4.13;3.80;;;;;;;3.22;85.64;99377.84;4994573;28;20038;-70
2022/12/08 00:12:49;;;;;;;1.65;1.55;;;;;;;3.22;85.78;99377.84;4994555;28;20611;-70
2022/12/08 00:15:19;;;;;;;0.88;0.88;;;;;;;3.22;84.85;99385.44;4976973;28;20544;-70
2022/12/08 00:17:48;;;;;;;3.67;3.28;;;;;;;3.22;85.46;99377.84;4994393;28;20505;-69
2022/12/08 00:20:17;;;;;;;1.98;1.33;;;;;;;3.19;85.45;99382.84;4994094;28;20089;-70
2022/12/08 00:22:45;;;;;;;1.45;1.35;;;;;;;3.17;85.53;99379.41;4993834;28;20443;-70
2022/12/08 00:25:14;;;;;;;3.00;1.45;;;;;;;3.16;84.77;99387.81;4994035;28;20035;-69
2022/12/08 00:27:43;;;;;;;1.73;1.63;;;;;;;3.17;85.35;99389.50;4994597;28;20046;-70
2022/12/08 00:30:12;;;;;;;2.10;2.00;;;;;;;3.17;84.83;99394.53;4993984;28;20042;-70
2022/12/08 00:32:42;;;;;;;0.95;0.95;;;;;;;3.17;85.09;99390.34;4994017;28;20038;-70
2022/12/08 00:35:11;;;;;;;1.17;1.08;;;;;;;3.17;84.59;99389.50;4994029;28;20054;-70
2022/12/08 00:37:40;;;;;;;1.63;1.53;;;;;;;3.12;84.77;99391.09;4993918;28;20034;-70
2022/12/08 00:40:09;;;;;;;;;;;;;;;3.13;85.17;99392.78;4994315;28;20054;-70
2022/12/08 00:42:38;;;;;;;8.38;3.97;;;;;;;3.13;85.37;99402.88;4993965;28;20365;-70
2022/12/08 00:45:07;;;;;;;2.08;1.95;;;;;;;3.13;84.97;99397.81;4994209;28;20129;-69
2022/12/08 00:47:36;;;;;;;0.47;0.47;;;;;;;3.11;84.96;99391.88;4994116;28;20543;-70
2022/12/08 00:50:08;;;;;;;1.60;1.50;;;;;;;3.09;85.10;99391.88;4994174;28;20038;-70
2022/12/08 00:52:37;;;;;;;2.20;2.10;;;;;;;3.09;85.67;99401.09;4976560;28;20133;-70
2022/12/08 00:55:06;;;;;;;1.60;1.50;;;;;;;3.05;84.75;99404.34;4993708;28;20046;-69
2022/12/08 00:57:35;;;;;;;2.95;1.70;;;;;;;3.07;84.89;99403.56;4993691;28;20043;-70
2022/12/08 01:00:05;;;;;;;1.63;1.52;;;;;;;3.08;85.03;99399.38;4994029;28;20039;-70
2022/12/08 01:02:34;;;;;;;2.03;1.88;;;;;;;3.10;84.79;99403.63;4993600;28;20051;-70
2022/12/08 01:05:02;;;;;;;1.43;1.33;;;;;;;3.10;85.33;99406.16;4993977;28;20098;-70
2022/12/08 01:07:33;;;;;;;2.72;1.10;;;;;;;3.12;84.75;99407.03;4993738;28;20042;-70
2022/12/08 01:10:03;;;;;;;2.30;2.10;;;;;;;3.07;85.33;99402.72;4993715;28;20058;-70
2022/12/08 01:12:32;;;;;;;1.88;1.70;;;;;;;3.09;84.44;99406.13;4993649;28;20129;-69
2022/12/08 01:15:01;;;;;;;1.95;1.85;;;;;;;3.08;84.79;99405.28;4976361;28;20121;-70
2022/12/08 01:17:31;;;;;;;0.40;0.40;;;;;;;3.08;85.49;99409.47;4993854;28;20043;-70
2022/12/08 01:20:00;;;;;;;3.40;1.98;;;;;;;3.05;85.29;99409.38;4993606;28;20042;-70
2022/12/08 01:22:33;;;;;;;3.03;2.67;;;;;;;3.08;85.20;99410.31;4977495;28;20046;-70
2022/12/08 01:25:02;;;;;;;1.30;1.20;;;;;;;3.09;84.26;99411.19;4993649;28;20100;-70
2022/12/08 01:27:31;;;;;;;2.20;2.03;;;;;;;3.09;85.00;99406.13;4993435;28;20508;-70
2022/12/08 01:30:00;;;;;;;4.00;2.83;;;;;;;3.01;84.33;99400.03;4993826;28;20130;-70
2022/12/08 01:32:29;;;;;;;3.28;2.97;;;;;;;3.03;84.88;99411.88;4993836;28;20039;-70
2022/12/08 01:34:57;;;;;;;2.28;2.15;;;;;;;3.04;84.41;99413.59;4994444;28;20133;-70
2022/12/08 01:37:26;;;;;;;2.80;2.60;;;;;;;3.07;84.45;99402.72;4996807;28;20063;-70
2022/12/08 01:39:56;;;;;;;1.02;1.02;;;;;;;3.02;84.49;99404.28;4996855;28;20515;-70
2022/12/08 01:42:26;;;;;;;5.07;1.40;;;;;;;2.98;84.50;99402.47;4996731;28;20097;-71
2022/12/08 01:44:59;;;;;;;;;;;;;;;3.00;85.18;99398.34;4997565;28;20053;-70
2022/12/08 01:47:33;;;;;;;0.70;0.70;;;;;;;3.02;84.59;99395.06;4996746;28;19964;-70
2022/12/08 01:50:04;;;;;;;1.25;1.15;;;;;;;3.00;85.13;99388.28;4997019;28;20073;-70
2022/12/08 01:52:38;;;;;;;3.65;1.15;;;;;;;2.86;84.65;99376.97;4996676;28;20101;-70
2022/12/08 01:55:14;;;;;;;3.50;1.52;;;;;;;2.87;84.74;99392.16;4996913;28;20051;-70
2022/12/08 01:57:48;;;;;;;1.52;1.17;;;;;;;2.82;85.07;99390.31;4979481;28;20058;-70
2022/12/08 02:00:20;;;;;;;1.00;1.00;;;;;;;2.84;85.05;99389.53;4979550;28;20488;-70
2022/12/08 02:02:56;;;;;;;5.38;1.65;;;;;;;2.85;84.76;99391.25;4996429;28;20082;-70
2022/12/08 02:05:27;;;;;;;1.45;1.35;;;;;;;2.81;85.24;99386.13;4996720;28;20051;-70
2022/12/08 02:07:57;;;;;;;1.90;1.80;;;;;;;2.75;85.48;99384.28;4978988;28;20049;-70
2022/12/08 02:10:33;;;;;;;0.60;0.60;;;;;;;2.69;85.78;99379.94;4996646;28;20054;-70
2022/12/08 02:13:04;;;;;;;1.75;1.65;;;;;;;2.68;85.54;99373.22;4996288;28;20038;-70
2022/12/08 02:15:39;;;;;;;1.10;1.05;;;;;;;2.65;85.51;99368.09;4996523;28;20500;-70
2022/12/08 02:18:22;;;;;;;2.17;1.55;;;;;;;2.67;85.37;99375.66;4996393;28;20034;-69
2022/12/08 02:21:02;;;;;;;1.65;1.35;;;;;;;2.62;85.39;99373.03;4996127;28;20057;-70
2022/12/08 02:23:36;;;;;;;;;;;;;;;2.58;85.94;99376.31;4979202;28;20054;-70
2022/12/08 02:26:33;;;;;;;0.40;0.40;;;;;;;2.54;85.38;99373.66;4996123;28;19925;-69
2022/12/08 02:29:26;;;;;;;0.70;0.70;;;;;;;2.51;85.99;99364.38;4995970;28;20066;-70
2022/12/08 02:32:15;;;;;;;0.75;0.75;;;;;;;2.44;86.00;99356.59;4996268;28;20072;-70
2022/12/08 02:34:52;;;;;;;0.70;0.70;;;;;;;2.41;85.89;99357.38;4995925;28;20050;-69
2022/12/08 02:37:29;;;;;;;1.48;1.35;;;;;;;2.44;85.82;99362.50;4995856;28;20050;-70
2022/12/08 02:40:02;;;;;;;2.17;1.90;;;;;;;2.47;86.31;99357.53;4995771;28;20048;-70
2022/12/08 02:42:38;;;;;;;0.88;0.88;;;;;;;2.50;86.23;99352.56;4995438;28;20054;-71
2022/12/08 02:45:14;;;;;;;1.27;1.17;;;;;;;2.51;85.94;99354.28;4995434;28;20050;-70
2022/12/08 02:47:44;;;;;;;1.15;1.05;;;;;;;2.52;85.70;99355.97;4978348;28;20138;-70
2022/12/08 02:50:15;;;;;;;1.42;1.33;;;;;;;2.53;85.85;99360.22;4995549;28;20074;-70
2022/12/08 02:52:46;;;;;;;1.50;1.40;;;;;;;2.55;85.17;99356.06;4995599;28;20589;-70
2022/12/08 02:55:23;;;;;;;2.42;2.10;;;;;;;2.57;85.87;99354.44;4995457;28;20058;-70
2022/12/08 02:58:06;;;;;;;1.38;0.93;;;;;;;2.60;84.95;99364.59;4995771;28;20457;-70
2022/12/08 03:00:42;;;;;;;4.78;2.28;;;;;;;2.61;85.55;99356.25;4995697;28;20046;-70
2022/12/08 03:03:23;;;;;;;2.45;1.27;;;;;;;2.63;85.08;99349.56;4995720;28;20054;-70
2022/12/08 03:06:07;;;;;;;1.90;1.80;;;;;;;2.63;85.60;99353.75;4995320;28;20057;-70
2022/12/08 03:08:43;;;;;;;2.05;1.88;;;;;;;2.65;85.57;99352.97;4995254;28;20497;-70
2022/12/08 03:11:19;;;;;;;0.40;0.40;;;;;;;2.68;85.36;99355.56;4995497;28;20054;-70
2022/12/08 03:13:52;;;;;;;0.80;0.80;;;;;;;2.77;84.96;99351.56;4995181;28;20050;-70
2022/12/08 03:16:25;;;;;;;5.25;2.30;;;;;;;2.79;85.04;99345.75;4995118;28;20526;-70
2022/12/08 03:19:00;;;;;;;0.70;0.70;;;;;;;2.83;85.35;99344.16;4995272;28;20034;-70
2022/12/08 03:21:33;;;;;;;2.75;1.42;;;;;;;2.86;85.40;99346.72;4977894;28;20081;-70
2022/12/08 03:24:07;;;;;;;2.88;2.28;;;;;;;2.87;85.14;99346.78;4995286;28;20492;-70
2022/12/08 03:26:41;;;;;;;1.80;1.70;;;;;;;2.87;84.98;99343.41;4977815;28;20523;-70
2022/12/08 03:29:11;;;;;;;1.33;1.23;;;;;;;2.82;84.65;99344.97;4995471;28;20049;-70
2022/12/08 03:31:49;;;;;;;;;;;;;;;2.82;85.33;99334.88;4995522;28;20081;-70
2022/12/08 03:34:19;;;;;;;0.73;0.73;;;;;;;2.83;84.50;99331.56;4995124;28;19922;-70
2022/12/08 03:36:48;;;;;;;2.45;2.25;;;;;;;2.88;84.51;99340.09;4994720;28;20053;-70
2022/12/08 03:39:17;;;;;;;1.80;1.35;;;;;;;2.88;85.09;99335.06;4994607;28;20056;-70
2022/12/08 03:41:47;;;;;;;1.35;1.25;;;;;;;2.88;85.45;99330.00;4994608;28;20044;-70
2022/12/08 03:44:16;;;;;;;0.50;0.50;;;;;;;2.86;85.53;99335.00;4994259;28;20504;-70
2022/12/08 03:46:44;;;;;;;3.25;2.33;;;;;;;2.85;85.25;99324.91;4977483;28;20402;-70
2022/12/08 03:49:13;;;;;;;1.67;1.57;;;;;;;2.78;85.18;99313.81;4994826;28;20045;-70
2022/12/08 03:51:42;;;;;;;1.75;1.65;;;;;;;2.79;85.49;99325.59;4994821;28;20758;-70
2022/12/08 03:54:12;;;;;;;0.90;0.90;;;;;;;2.78;85.09;99320.53;4977341;28;20486;-70
2022/12/08 03:56:40;;;;;;;1.88;1.73;;;;;;;2.77;85.44;99318.81;4994242;28;20559;-70
2022/12/08 03:59:10;;;;;;;3.53;3.03;;;;;;;2.75;86.30;99326.34;4994099;28;20038;-70
2022/12/08 04:01:39;;;;;;;1.77;1.67;;;;;;;2.76;86.29;99314.59;4994307;28;20058;-70
2022/12/08 04:04:08;;;;;;;1.23;1.17;;;;;;;2.75;85.48;99317.91;4994275;28;20049;-70
2022/12/08 04:06:37;;;;;;;2.80;1.25;;;;;;;2.73;85.75;99315.38;4994307;28;20042;-70
2022/12/08 04:09:06;;;;;;;3.27;2.97;;;;;;;2.73;85.72;99308.66;4994500;28;20408;-70
2022/12/08 04:11:36;;;;;;;0.85;0.85;;;;;;;2.71;86.03;99309.47;4994139;28;20319;-70
2022/12/08 04:14:04;;;;;;;1.75;1.65;;;;;;;2.62;85.98;99309.22;4994535;28;20058;-71
2022/12/08 04:16:33;;;;;;;1.20;0.80;;;;;;;2.70;86.72;99322.84;4994130;28;20049;-70
2022/12/08 04:19:02;;;;;;;0.70;0.70;;;;;;;2.71;87.04;99317.84;4994642;28;20038;-70
2022/12/08 04:21:30;;;;;;;6.63;3.23;;;;;;;2.75;86.39;99317.91;4994395;28;20117;-70
2022/12/08 04:23:59;;;;;;;5.18;2.65;;;;;;;2.76;86.80;99319.63;4994050;28;20276;-70
2022/12/08 04:26:28;;;;;;;;;;;;;;;2.76;87.12;99324.69;4977192;28;20452;-70
2022/12/08 04:28:58;;;;;;;1.23;1.17;;;;;;;2.79;87.01;99319.69;4994058;28;20422;-70
2022/12/08 04:31:27;;;;;;;2.25;2.00;;;;;;;2.75;86.72;99305.31;4976852;28;20497;-70
2022/12/08 04:33:56;;;;;;;1.83;1.73;;;;;;;2.82;86.66;99309.69;4993896;28;20054;-70
2022/12/08 04:36:25;;;;;;;5.43;1.60;;;;;;;2.87;87.27;99323.25;4994010;28;20062;-70
2022/12/08 04:38:54;;;;;;;1.42;1.23;;;;;;;2.86;86.53;99316.50;4976663;28;20588;-70
2022/12/08 04:41:22;;;;;;;8.77;6.60;;;;;;;2.88;86.85;99314.91;4994220;28;20034;-70
2022/12/08 04:43:51;;;;;;;3.03;2.70;;;;;;;2.88;87.24;99319.94;4993620;28;20284;-70
2022/12/08 04:46:21;;;;;;;6.43;4.72;;;;;;;2.91;87.42;99317.47;4993862;28;20057;-70
2022/12/08 04:48:50;;;;;;;4.30;3.63;;;;;;;2.94;87.39;99318.41;4976910;28;20133;-70
2022/12/08 04:51:20;;;;;;;10.65;4.38;;;;;;;2.95;86.84;99326.81;4993831;28;20053;-70
2022/12/08 04:53:49;;;;;;;4.63;2.97;;;;;;;2.95;87.12;99326.81;4993795;28;20496;-70
2022/12/08 04:56:19;;;;;;;8.82;1.92;;;;;;;2.97;87.13;99322.66;4993806;28;20050;-70
2022/12/08 04:58:48;;;;;;;3.10;2.47;;;;;;;2.97;86.36;99327.69;4993863;28;20058;-70
2022/12/08 05:01:16;;;;;;;1.00;0.90;;;;;;;2.99;86.19;99328.59;4993980;28;20405;-70
2022/12/08 05:03:47;;;;;;;2.33;2.13;;;;;;;2.99;86.17;99324.41;4976490;28;20070;-70
2022/12/08 05:06:16;;;;;;;2.95;2.75;;;;;;;2.95;86.91;99326.81;4994076;28;20042;-70
2022/12/08 05:08:45;;;;;;;0.97;0.93;;;;;;;2.96;86.15;99324.31;4994468;28;20046;-70
2022/12/08 05:11:14;;;;;;;1.25;1.15;;;;;;;2.98;86.58;99322.69;4997766;28;20762;-70
2022/12/08 05:13:42;;;;;;;3.88;3.58;;;;;;;2.99;86.24;99328.59;4997806;28;20493;-71
2022/12/08 05:16:14;;;;;;;6.07;1.67;;;;;;;3.02;86.22;99326.16;4980869;28;20104;-70
2022/12/08 05:18:43;;;;;;;1.05;1.02;;;;;;;3.04;86.68;99327.03;4997337;28;20137;-70
2022/12/08 05:21:13;;;;;;;;;;;;;;;3.04;86.47;99322.84;4997735;28;20038;-70
2022/12/08 05:23:42;;;;;;;1.05;1.05;;;;;;;2.95;86.25;99307.47;4997203;28;20434;-70
2022/12/08 05:26:11;;;;;;;0.73;0.73;;;;;;;2.95;86.62;99312.53;4997169;28;20050;-70
2022/12/08 05:28:40;;;;;;;1.57;1.47;;;;;;;2.76;86.68;99274.28;4997162;28;20069;-70
2022/12/08 05:31:12;;;;;;;2.90;2.70;;;;;;;2.95;86.35;99311.69;4997100;28;20050;-70
2022/12/08 05:33:42;;;;;;;2.40;2.20;;;;;;;2.96;86.50;99313.38;4997283;28;20050;-70
2022/12/08 05:36:14;;;;;;;2.30;2.03;;;;;;;2.95;86.35;99317.56;4996992;28;20035;-70
2022/12/08 05:38:44;;;;;;;2.28;2.15;;;;;;;2.91;86.88;99310.75;4996968;28;20046;-70
2022/12/08 05:41:15;;;;;;;1.58;1.48;;;;;;;2.90;86.92;99308.22;4996829;28;20039;-71
2022/12/08 05:43:43;;;;;;;2.90;2.70;;;;;;;2.89;87.12;99292.25;4959900;28;20053;-70
2022/12/08 05:46:13;;;;;;;1.73;1.63;;;;;;;2.93;86.81;99311.66;4977177;28;20034;-70
2022/12/08 05:48:42;;;;;;;2.28;1.85;;;;;;;2.91;87.24;99309.91;4977172;28;20051;-70
2022/12/08 05:51:18;;;;;;;1.15;1.05;;;;;;;2.94;87.57;99315.03;4976240;28;20049;-71
2022/12/08 05:53:48;;;;;;;1.27;1.20;;;;;;;2.93;86.73;99303.25;4976585;28;20453;-70
2022/12/08 05:56:17;;;;;;;2.58;2.38;;;;;;;2.90;87.03;99313.25;4976931;28;20082;-71
2022/12/08 05:58:47;;;;;;;3.00;2.80;;;;;;;2.88;86.89;99314.91;4977380;28;20102;-71
2022/12/08 06:01:21;;;;;;;1.25;1.15;;;;;;;2.87;86.81;99313.19;4975831;28;20035;-71
2022/12/08 06:03:51;;;;;;;1.52;1.42;;;;;;;2.80;87.47;99306.28;4976105;28;20047;-70
2022/12/08 06:06:21;;;;;;;3.72;3.42;;;;;;;2.82;86.79;99310.56;4977226;28;20051;-70
2022/12/08 06:08:50;;;;;;;2.03;1.90;;;;;;;2.78;87.04;99311.31;4976932;28;20054;-70
2022/12/08 06:11:20;;;;;;;4.53;3.67;;;;;;;2.79;87.27;99307.94;4977187;28;20412;-70
2022/12/08 06:13:49;;;;;;;2.30;2.17;;;;;;;2.81;87.62;99313.03;4976788;28;20047;-71
2022/12/08 06:16:19;;;;;;;9.73;4.75;;;;;;;2.84;87.22;99310.56;4976840;28;20126;-70
2022/12/08 06:18:48;;;;;;;3.80;3.38;;;;;;;2.90;88.07;99313.25;4976703;28;20039;-70
2022/12/08 06:21:18;;;;;;;3.67;1.45;;;;;;;2.90;88.15;99316.63;4974455;28;20109;-71
2022/12/08 06:23:51;;;;;;;8.48;1.17;;;;;;;2.88;87.52;99314.91;4976912;28;20481;-71
2022/12/08 06:26:20;;;;;;;2.25;0.82;;;;;;;2.88;87.46;99320.75;4976604;28;20066;-71
2022/12/08 06:28:49;;;;;;;0.77;0.77;;;;;;;2.89;87.71;99312.41;4976536;28;20046;-72
2022/12/08 06:31:20;;;;;;;2.70;2.50;;;;;;;2.93;88.43;99315.84;4976562;28;20098;-72
2022/12/08 06:33:50;;;;;;;9.85;2.10;;;;;;;2.93;87.79;99309.13;4976819;28;20057;-71
2022/12/08 06:36:21;;;;;;;2.47;1.98;;;;;;;2.92;88.14;99316.66;4975496;28;20133;-71
2022/12/08 06:38:51;;;;;;;3.80;2.97;;;;;;;2.93;87.74;99318.38;4976663;28;20047;-71
2022/12/08 06:41:20;;;;;;;4.80;2.60;;;;;;;2.91;88.35;99317.47;4976226;28;20058;-71
2022/12/08 06:43:49;;;;;;;2.37;2.17;;;;;;;2.89;88.08;99321.63;4983236;28;20054;-70
2022/12/08 06:46:19;;;;;;;2.45;2.22;;;;;;;2.88;87.73;99319.94;4995729;28;20081;-70
2022/12/08 06:48:49;;;;;;;2.78;2.13;;;;;;;2.87;88.35;99324.13;4995620;28;20493;-70
2022/12/08 06:51:21;;;;;;;1.40;1.30;;;;;;;2.87;87.76;99323.25;4995939;28;20061;-70
2022/12/08 06:53:51;;;;;;;1.35;1.27;;;;;;;2.90;87.82;99324.19;4995482;28;20058;-71
2022/12/08 06:56:22;;;;;;;7.97;2.55;;;;;;;2.91;88.56;99335.09;4995997;28;20056;-70
2022/12/08 06:58:51;;;;;;;2.30;1.42;;;;;;;2.93;88.33;99333.50;4995741;28;20046;-70
2022/12/08 07:01:20;;;;;;;7.40;3.42;;;;;;;2.93;87.75;99339.38;4995256;28;20117;-71
2022/12/08 07:03:49;;;;;;;1.63;1.52;;;;;;;2.96;87.65;99333.53;4995680;28;20097;-71
2022/12/08 07:06:22;;;;;;;1.47;1.37;;;;;;;2.98;88.37;99336.94;4995239;28;20061;-70
2022/12/08 07:08:52;;;;;;;6.65;2.75;;;;;;;2.99;88.38;99338.66;4995246;28;20054;-71
2022/12/08 07:11:21;;;;;;;0.95;0.95;;;;;;;3.02;88.29;99341.28;4995157;28;20050;-71
2022/12/08 07:13:50;;;;;;;6.63;2.20;;;;;;;2.99;87.48;99344.56;4995030;28;20038;-70
2022/12/08 07:16:19;;;;;;;3.83;3.53;;;;;;;2.99;88.10;99343.72;4995014;28;20113;-70
2022/12/08 07:18:48;;;;;;;5.50;4.50;;;;;;;3.03;87.75;99342.94;4994999;28;20092;-71
2022/12/08 07:21:17;;;;;;;0.52;0.52;;;;;;;3.05;88.58;99343.84;4994910;28;20041;-71
2022/12/08 07:23:47;;;;;;;5.55;4.55;;;;;;;3.04;88.40;99342.16;4994885;28;20047;-71
2022/12/08 07:26:26;;;;;;;2.80;2.53;;;;;;;3.08;88.19;99338.88;4994941;28;20050;-71
2022/12/08 07:28:55;;;;;;;18.88;4.47;;;;;;;3.11;88.34;99336.44;4995148;28;20508;-71
2022/12/08 07:31:25;;;;;;;0.95;0.93;;;;;;;3.16;87.71;99342.44;4994793;28;20046;-71
2022/12/08 07:33:55;;;;;;;2.78;2.58;;;;;;;3.18;88.28;99333.22;4994719;28;20042;-70
2022/12/08 07:36:24;;;;;;;2.33;2.15;;;;;;;3.18;87.95;99336.63;4993217;28;20077;-70
2022/12/08 07:38:53;;;;;;;0.98;0.90;;;;;;;3.17;87.41;99334.91;5014616;28;20048;-71
2022/12/08 07:41:24;;;;;;;2.72;2.53;;;;;;;3.18;87.57;99338.28;4995799;28;20141;-70
2022/12/08 07:43:56;;;;;;;1.55;1.45;;;;;;;3.20;87.57;99345.06;5008041;28;20150;-70
2022/12/08 07:46:26;;;;;;;2.75;2.25;;;;;;;3.21;88.10;99339.22;4994555;28;20496;-71
2022/12/08 07:48:55;;;;;;;;;;;;;;;3.20;87.49;99340.03;5012251;28;20049;-70
2022/12/08 07:51:25;;;;;;;1.95;1.83;;;;;;;3.22;87.80;99337.53;5014307;28;20020;-70
2022/12/08 07:53:53;;;;;;;1.27;1.23;;;;;;;3.23;87.80;99350.19;5006076;28;20038;-70
2022/12/08 07:56:22;;;;;;;4.65;1.90;;;;;;;3.22;87.50;99347.59;5007609;28;20073;-71
2022/12/08 07:58:51;;;;;;;2.27;2.13;;;;;;;3.28;87.72;99350.28;4984657;28;20077;-71
2022/12/08 08:01:24;;;;;;;0.93;0.93;;;;;;;3.34;87.56;99347.88;4977179;28;20057;-71
2022/12/08 08:03:55;;;;;;;1.27;1.17;;;;;;;3.34;87.51;99352.94;5013906;28;20396;-70
2022/12/08 08:06:24;;;;;;;2.28;2.08;;;;;;;3.38;86.90;99349.69;5014222;28;20081;-70
2022/12/08 08:08:53;;;;;;;4.22;2.95;;;;;;;3.41;86.90;99352.25;5013798;28;20070;-70
2022/12/08 08:11:22;;;;;;;1.65;1.55;;;;;;;3.43;87.51;99355.69;5013731;28;20042;-70
2022/12/08 08:13:51;;;;;;;2.13;2.03;;;;;;;3.46;87.25;99354.88;5014084;28;20034;-70
2022/12/08 08:16:21;;;;;;;1.15;1.10;;;;;;;3.46;87.39;99353.19;5009614;28;20038;-71
2022/12/08 08:18:51;;;;;;;1.30;1.20;;;;;;;3.46;86.88;99348.16;5013744;28;20550;-70
2022/12/08 08:21:20;;;;;;;;;;;;;;;3.48;86.78;99351.56;4992066;28;20058;-70
2022/12/08 08:24:09;;;;;;;2.00;1.85;;;;;;;3.49;86.67;99358.31;5006659;28;19928;-70
2022/12/08 08:26:38;;;;;;;3.57;3.27;;;;;;;3.53;86.43;99360.06;5014019;28;20042;-70
2022/12/08 08:29:09;;;;;;;2.67;2.47;;;;;;;3.56;86.33;99352.59;5013988;28;20066;-70
2022/12/08 08:31:39;;;;;;;2.28;2.13;;;;;;;3.60;86.66;99361.09;5013280;28;20050;-70
2022/12/08 08:34:08;;;;;;;1.15;1.05;;;;;;;3.62;86.49;99355.25;5013836;28;20448;-70
2022/12/08 08:36:37;;;;;;;4.50;2.80;;;;;;;3.63;85.75;99362.00;5013653;28;20065;-71
2022/12/08 08:39:07;;;;;;;3.55;3.25;;;;;;;3.63;86.00;99354.41;5013572;28;20058;-70
2022/12/08 08:41:35;;;;;;;1.83;1.73;;;;;;;3.70;86.45;99358.78;5013445;28;20049;-70
2022/12/08 08:44:05;;;;;;;3.03;2.78;;;;;;;3.72;86.05;99357.13;4997230;28;20341;-71
2022/12/08 08:46:33;;;;;;;2.25;1.77;;;;;;;3.73;86.04;99347.91;5010798;28;20034;-70
2022/12/08 08:49:03;;;;;;;2.45;1.77;;;;;;;3.73;86.17;99347.91;5005665;28;20039;-71
2022/12/08 08:51:33;;;;;;;5.82;3.03;;;;;;;3.77;85.67;99340.41;5001057;28;20514;-70
2022/12/08 08:54:02;;;;;;;1.25;1.15;;;;;;;3.73;85.75;99336.13;5016877;28;20041;-70
2022/12/08 08:56:32;;;;;;;2.47;2.28;;;;;;;3.73;85.93;99336.13;5017213;28;20049;-71
2022/12/08 08:59:01;;;;;;;1.73;1.63;;;;;;;3.77;86.49;99340.41;5017205;28;20488;-70
2022/12/08 09:01:30;;;;;;;2.53;2.08;;;;;;;3.82;86.20;99338.84;5017042;28;20689;-70
2022/12/08 09:03:59;;;;;;;3.10;2.80;;;;;;;3.86;86.29;99343.13;4999883;28;20544;-71
2022/12/08 09:06:29;;;;;;;1.70;1.60;;;;;;;3.85;86.23;99338.06;5017308;28;20046;-71
2022/12/08 09:09:00;;;;;;;1.08;1.02;;;;;;;3.90;86.22;99337.34;5016967;28;20046;-71
2022/12/08 09:11:28;;;;;;;4.88;4.40;;;;;;;3.89;86.19;99320.47;4999728;28;20041;-71
2022/12/08 09:14:00;;;;;;;4.45;3.30;;;;;;;3.98;86.08;99330.75;5017196;28;20042;-72
2022/12/08 09:16:29;;;;;;;4.40;3.25;;;;;;;4.02;86.20;99332.53;5014028;28;20575;-71
2022/12/08 09:18:59;;;;;;;2.25;1.92;;;;;;;4.05;86.02;99334.25;5005307;28;20050;-72
2022/12/08 09:21:29;;;;;;;;;;;;;;;4.00;85.58;99331.66;5007129;28;20042;-71
2022/12/08 09:23:59;;;;;;;1.60;1.17;;;;;;;3.93;85.36;99322.25;5007752;28;19999;-71
2022/12/08 09:26:28;;;;;;;1.50;1.30;;;;;;;3.88;85.26;99312.88;4988448;28;20053;-71
2022/12/08 09:28:58;;;;;;;1.80;1.70;;;;;;;3.84;85.69;99301.84;4996902;28;20092;-71
2022/12/08 09:31:27;;;;;;;2.33;2.17;;;;;;;3.93;84.93;99307.13;5016676;28;20566;-71
2022/12/08 09:33:56;;;;;;;1.85;1.65;;;;;;;3.98;84.67;99315.59;5016972;28;20042;-71
2022/12/08 09:36:25;;;;;;;1.00;0.90;;;;;;;3.95;84.93;99300.41;5016619;28;20034;-71
2022/12/08 09:38:55;;;;;;;2.53;2.33;;;;;;;4.04;84.86;99294.69;5016056;28;20507;-71
2022/12/08 09:41:33;;;;;;;0.77;0.77;;;;;;;4.12;84.99;99304.94;5016231;28;20093;-71
2022/12/08 09:44:38;;;;;;;1.83;1.52;;;;;;;4.19;85.23;99301.69;4998706;28;20057;-71
2022/12/08 09:47:17;;;;;;;6.45;2.97;;;;;;;4.20;84.47;99301.69;5006893;28;20042;-71
2022/12/08 09:49:55;;;;;;;4.82;4.30;;;;;;;4.25;84.56;99289.19;5014309;28;20049;-71
2022/12/08 09:52:27;;;;;;;4.60;2.03;;;;;;;4.28;84.74;99295.13;4998783;28;20500;-71
2022/12/08 09:55:03;;;;;;;4.68;3.65;;;;;;;4.33;84.78;99287.63;5015794;28;20116;-71
2022/12/08 09:57:32;;;;;;;6.00;2.75;;;;;;;4.36;85.11;99282.63;5015364;28;20050;-71
2022/12/08 10:00:05;;;;;;;2.70;2.50;;;;;;;4.38;85.05;99286.03;5016100;28;20046;-71
2022/12/08 10:02:37;;;;;;;8.77;4.93;;;;;;;4.40;85.25;99276.81;5016364;28;20045;-71
2022/12/08 10:05:06;;;;;;;4.78;2.80;;;;;;;4.43;84.97;99280.25;5016010;28;20069;-72
2022/12/08 10:07:44;;;;;;;2.17;2.00;;;;;;;4.48;84.76;99277.78;5016343;28;20046;-71
2022/12/08 10:10:26;;;;;;;6.60;4.40;;;;;;;4.50;85.28;99281.19;5015824;28;20120;-71
2022/12/08 10:13:03;;;;;;;2.08;1.90;;;;;;;4.54;84.89;99273.69;5015896;28;20046;-71
2022/12/08 10:15:47;;;;;;;4.45;2.08;;;;;;;4.58;85.44;99274.59;5014734;28;20053;-71
2022/12/08 10:18:19;;;;;;;3.22;2.42;;;;;;;4.62;85.19;99259.50;5016077;28;20049;-71
2022/12/08 10:20:50;;;;;;;11.40;3.33;;;;;;;4.61;85.35;99264.50;5015738;28;20050;-72
2022/12/08 10:23:27;;;;;;;5.75;3.92;;;;;;;4.57;84.59;99260.25;5016151;28;20038;-71
2022/12/08 10:26:02;;;;;;;1.73;1.52;;;;;;;4.53;84.49;99256.00;5016175;28;20100;-71
2022/12/08 10:28:33;;;;;;;5.25;2.20;;;;;;;4.47;84.94;99253.34;5007299;28;20538;-71
2022/12/08 10:31:17;;;;;;;1.08;1.02;;;;;;;4.50;84.73;99250.88;5015868;28;20053;-71
2022/12/08 10:33:48;;;;;;;1.55;1.45;;;;;;;4.49;84.42;99249.16;5015472;28;20077;-71
2022/12/08 10:36:17;;;;;;;3.20;2.95;;;;;;;4.51;84.51;99247.53;5015797;28;20447;-71
2022/12/08 10:38:46;;;;;;;1.90;1.80;;;;;;;4.52;84.33;99241.63;5015897;28;20488;-71
2022/12/08 10:41:18;;;;;;;0.95;0.95;;;;;;;4.51;83.85;99242.47;5015428;28;20034;-71
2022/12/08 10:43:49;;;;;;;0.90;0.90;;;;;;;4.56;83.69;99238.31;5013990;28;20446;-71
2022/12/08 10:46:20;;;;;;;2.25;2.13;;;;;;;4.57;83.93;99237.50;4995725;28;20104;-72
2022/12/08 10:48:52;;;;;;;1.02;1.00;;;;;;;4.59;83.53;99235.84;5003852;28;20495;-71
2022/12/08 10:51:25;;;;;;;2.92;2.65;;;;;;;4.61;83.60;99241.78;5010361;28;20197;-71
2022/12/08 10:53:53;;;;;;;4.03;3.58;;;;;;;4.65;83.32;99241.03;5015079;28;20046;-71
2022/12/08 10:56:28;;;;;;;3.10;1.45;;;;;;;4.64;83.35;99236.78;5010785;28;20033;-71
2022/12/08 10:59:12;;;;;;;1.95;1.75;;;;;;;4.65;83.00;99241.03;5006837;28;20062;-72
2022/12/08 11:01:46;;;;;;;2.38;1.23;;;;;;;4.68;82.62;99230.94;5004554;28;20436;-71
2022/12/08 11:04:18;;;;;;;0.55;0.55;;;;;;;4.67;82.54;99224.19;5003413;28;20489;-70
2022/12/08 11:06:49;;;;;;;0.50;0.50;;;;;;;4.70;82.27;99220.03;5004272;28;20042;-70
2022/12/08 11:09:31;;;;;;;1.85;1.75;;;;;;;4.71;81.86;99216.69;4986145;28;20039;-71
2022/12/08 11:12:07;;;;;;;2.22;1.17;;;;;;;4.76;81.74;99206.63;5014115;28;20496;-70
2022/12/08 11:14:50;;;;;;;1.55;1.45;;;;;;;4.79;81.54;99209.22;5015125;28;20137;-72
2022/12/08 11:17:26;;;;;;;1.13;0.82;;;;;;;4.82;81.36;99199.16;5011243;28;20048;-70
2022/12/08 11:20:00;;;;;;;2.35;1.90;;;;;;;4.85;81.09;99204.22;4986538;28;20424;-71
2022/12/08 11:22:32;;;;;;;2.85;2.65;;;;;;;4.85;80.89;99190.78;5005030;28;20504;-73
2022/12/08 11:25:09;;;;;;;2.63;2.45;;;;;;;4.86;80.89;99195.84;5004415;28;20089;-70
2022/12/08 11:27:43;;;;;;;1.50;1.40;;;;;;;4.88;80.86;99199.22;5007782;28;20044;-70
2022/12/08 11:30:17;;;;;;;1.50;1.42;;;;;;;4.86;80.36;99185.72;5014486;28;20049;-71
2022/12/08 11:32:49;;;;;;;0.80;0.80;;;;;;;4.89;80.38;99198.41;5014564;28;20104;-69
2022/12/08 11:35:27;;;;;;;0.63;0.63;;;;;;;4.83;79.60;99193.25;5011303;28;20042;-70
2022/12/08 11:38:01;;;;;;;0.60;0.60;;;;;;;4.83;79.66;99188.19;5008008;28;20053;-72
2022/12/08 11:40:52;;;;;;;1.95;1.73;;;;;;;4.84;79.03;99187.38;5013847;28;20042;-70
2022/12/08 11:43:27;;;;;;;0.98;0.95;;;;;;;4.79;78.59;99171.31;5014344;28;20065;-72
2022/12/08 11:46:00;;;;;;;0.77;0.77;;;;;;;4.87;78.36;99184.88;5014196;28;20046;-71
2022/12/08 11:48:36;;;;;;;0.98;0.95;;;;;;;4.89;77.85;99174.81;5014722;28;20050;-71
2022/12/08 11:51:12;;;;;;;2.15;1.25;;;;;;;4.91;77.37;99179.06;5014301;28;20096;-70
2022/12/08 11:53:51;;;;;;;1.95;1.83;;;;;;;4.90;76.94;99182.41;5014097;28;20073;-70
2022/12/08 11:56:25;;;;;;;1.15;1.08;;;;;;;4.91;76.68;99180.72;5014444;28;20050;-70
2022/12/08 11:58:59;;;;;;;0.73;0.73;;;;;;;4.91;76.46;99179.06;5014333;28;20110;-70
2022/12/08 12:01:28;;;;;;;0.38;0.38;;;;;;;4.69;76.35;99131.56;4994767;28;20132;-71
2022/12/08 12:04:11;;;;;;;0.83;0.83;;;;;;;4.91;76.26;99171.47;5013355;28;20136;-71
2022/12/08 12:07:10;;;;;;;1.70;1.60;;;;;;;4.94;75.67;99163.94;5013458;28;20408;-70
2022/12/08 12:10:01;;;;;;;1.55;1.45;;;;;;;4.92;75.74;99139.47;4970503;28;20408;-70